Friday, October 20, 2017, 9:27 PM EDT
Back to Local

KBED, Bedford Hanscom Field

Location: Concord, MA, United States Lat: 42.467
Local Time: 9:27 PM EDT ( 1:27 GMT) Lon: -71.3
Time Zone: US/Eastern Elev: 134 ft

Show me the last for .
Show Decoded

2017-10-20 20:56 METAR KBED 210056Z 25005KT 10SM CLR 14/01 A3009 RMK AO2 SLP202 T01440006 =
2017-10-20 19:56 METAR KBED 202356Z 30005KT 10SM CLR 16/00 A3007 RMK AO2 SLP195 T01560000 10211
                 20156 53020 =
2017-10-20 18:56 METAR KBED 202256Z 29006KT 10SM CLR 16/00 A3005 RMK AO2 SLP188 T01610000 =
2017-10-20 17:56 METAR KBED 202156Z 26004KT 10SM CLR 18/M01 A3003 RMK AO2 SLP181 T01781006 =
2017-10-20 16:56 METAR KBED 202056Z 30007KT 10SM CLR 20/00 A3001 RMK AO2 SLP174 T02000000 53004 =
2017-10-20 15:56 METAR KBED 201956Z 30011G19KT 10SM CLR 21/01 A3000 RMK AO2 SLP169 T02110006 =
2017-10-20 14:56 METAR KBED 201856Z 30015G20KT 10SM CLR 21/01 A3000 RMK AO2 SLP170 T02060011 =
2017-10-20 13:56 METAR KBED 201756Z 31013KT 10SM CLR 21/01 A3000 RMK AO2 SLP170 T02060011 10206
                 20117 58018 =
2017-10-20 12:56 METAR KBED 201656Z 29012KT 10SM CLR 19/01 A3002 RMK AO2 SLP177 T01940011 =
2017-10-20 11:56 METAR KBED 201556Z 31011KT 10SM FEW200 19/01 A3004 RMK AO2 SLP185 T01890011 =
2017-10-20 10:56 METAR KBED 201456Z 30010KT 10SM FEW200 18/02 A3005 RMK AO2 SLP189 T01780022
                 50005 =
2017-10-20 09:56 METAR KBED 201356Z 29009KT 10SM FEW200 17/04 A3007 RMK AO2 SLP194 T01670039 =
2017-10-20 08:56 METAR KBED 201256Z 27007KT 10SM SCT200 15/07 A3005 RMK AO2 SLP189 T01500067 =
2017-10-20 07:56 METAR KBED 201156Z 24005KT 10SM CLR 12/07 A3004 RMK AO2 SLP184 T01170067 10144
                 20094 53021 =
2017-10-20 06:56 METAR KBED 201056Z 27003KT 10SM CLR 11/06 A3000 RMK AO2 SLP171 T01060061 =
2017-10-20 05:56 METAR KBED 200956Z AUTO 26004KT 10SM CLR 13/06 A2999 RMK AO2 SLP168 T01280061 =
2017-10-20 04:56 METAR KBED 200856Z AUTO 25006KT 10SM CLR 14/07 A2998 RMK AO2 SLP162 T01390067
                 51003 =
2017-10-20 03:56 METAR KBED 200756Z AUTO 24007KT 10SM CLR 14/07 A2997 RMK AO2 SLP162 T01390072 =
2017-10-20 02:56 METAR KBED 200656Z AUTO 25004KT 10SM CLR 13/07 A2997 RMK AO2 SLP159 T01330072 =
2017-10-20 01:56 METAR KBED 200556Z AUTO 20009KT 10SM CLR 14/08 A2997 RMK AO2 SLP159 T01440078
                 10156 20133 58005 =
2017-10-20 00:56 METAR KBED 200456Z AUTO 23006KT 10SM CLR 14/08 A2999 RMK AO2 SLP166 T01440078
                 402330033 =
2017-10-19 23:56 METAR KBED 200356Z AUTO 22009KT 10SM CLR 14/08 A2998 RMK AO2 SLP164 T01440078 =
2017-10-19 22:56 METAR KBED 200256Z AUTO 21010KT 10SM CLR 14/08 A2998 RMK AO2 SLP164 T01440078
                 58000 =
2017-10-19 21:56 METAR KBED 200156Z 21006KT 10SM SCT150 14/07 A3000 RMK AO2 SLP171 T01390072 =

Support USWX by starting your Amazon purchase here.